sensor_id;sensor_type;location;lat;lon;timestamp;temperature;humidity
52044;DHT22;38053;53.100;6.078;2024-01-30T00:00:50;5.90;99.90
52044;DHT22;38053;53.100;6.078;2024-01-30T00:03:15;6.00;99.90
52044;DHT22;38053;53.100;6.078;2024-01-30T00:05:41;5.90;99.90
52044;DHT22;38053;53.100;6.078;2024-01-30T00:08:07;5.90;99.90
52044;DHT22;38053;53.100;6.078;2024-01-30T00:10:33;6.00;99.90
52044;DHT22;38053;53.100;6.078;2024-01-30T00:12:58;6.00;99.90
52044;DHT22;38053;53.100;6.078;2024-01-30T00:15:24;6.00;99.90
52044;DHT22;38053;53.100;6.078;2024-01-30T00:17:49;6.00;99.90
52044;DHT22;38053;53.100;6.078;2024-01-30T00:20:17;6.00;99.90
52044;DHT22;38053;53.100;6.078;2024-01-30T00:22:43;5.90;99.90
52044;DHT22;38053;53.100;6.078;2024-01-30T00:25:08;6.00;99.90
52044;DHT22;38053;53.100;6.078;2024-01-30T00:27:35;5.90;99.90
52044;DHT22;38053;53.100;6.078;2024-01-30T00:30:00;5.90;99.90
52044;DHT22;38053;53.100;6.078;2024-01-30T00:32:26;6.00;99.90
52044;DHT22;38053;53.100;6.078;2024-01-30T00:34:51;5.90;99.90
52044;DHT22;38053;53.100;6.078;2024-01-30T00:37:17;5.90;99.90
52044;DHT22;38053;53.100;6.078;2024-01-30T00:39:42;5.90;99.90
52044;DHT22;38053;53.100;6.078;2024-01-30T00:42:08;5.90;99.90
52044;DHT22;38053;53.100;6.078;2024-01-30T00:44:37;5.90;99.90
52044;DHT22;38053;53.100;6.078;2024-01-30T00:47:04;5.90;99.90
52044;DHT22;38053;53.100;6.078;2024-01-30T00:49:30;5.90;99.90
52044;DHT22;38053;53.100;6.078;2024-01-30T00:51:55;5.90;99.90
52044;DHT22;38053;53.100;6.078;2024-01-30T00:54:21;5.90;99.90
52044;DHT22;38053;53.100;6.078;2024-01-30T00:56:47;5.90;99.90
52044;DHT22;38053;53.100;6.078;2024-01-30T00:59:12;5.90;99.90
52044;DHT22;38053;53.100;6.078;2024-01-30T01:01:43;5.90;99.90
52044;DHT22;38053;53.100;6.078;2024-01-30T01:04:09;5.80;99.90
52044;DHT22;38053;53.100;6.078;2024-01-30T01:06:37;5.80;99.90
52044;DHT22;38053;53.100;6.078;2024-01-30T01:09:03;5.80;99.90
52044;DHT22;38053;53.100;6.078;2024-01-30T01:11:29;5.80;99.90
52044;DHT22;38053;53.100;6.078;2024-01-30T01:13:55;5.80;99.90
52044;DHT22;38053;53.100;6.078;2024-01-30T01:16:20;5.80;99.90
52044;DHT22;38053;53.100;6.078;2024-01-30T01:18:46;5.80;99.90
52044;DHT22;38053;53.100;6.078;2024-01-30T01:21:11;5.80;99.90
52044;DHT22;38053;53.100;6.078;2024-01-30T01:23:37;5.90;99.90
52044;DHT22;38053;53.100;6.078;2024-01-30T01:26:04;5.90;99.90
52044;DHT22;38053;53.100;6.078;2024-01-30T01:28:30;5.90;99.90
52044;DHT22;38053;53.100;6.078;2024-01-30T01:30:56;5.80;99.90
52044;DHT22;38053;53.100;6.078;2024-01-30T01:33:24;5.80;99.90
52044;DHT22;38053;53.100;6.078;2024-01-30T01:35:50;5.90;99.90
52044;DHT22;38053;53.100;6.078;2024-01-30T01:38:19;5.90;99.90
52044;DHT22;38053;53.100;6.078;2024-01-30T01:40:45;5.90;99.90
52044;DHT22;38053;53.100;6.078;2024-01-30T01:43:11;5.90;99.90
52044;DHT22;38053;53.100;6.078;2024-01-30T01:45:36;5.90;99.90
52044;DHT22;38053;53.100;6.078;2024-01-30T01:48:02;5.90;99.90
52044;DHT22;38053;53.100;6.078;2024-01-30T01:50:28;5.90;99.90
52044;DHT22;38053;53.100;6.078;2024-01-30T01:52:54;5.90;99.90
52044;DHT22;38053;53.100;6.078;2024-01-30T01:55:21;5.90;99.90
52044;DHT22;38053;53.100;6.078;2024-01-30T01:57:55;5.90;99.90
52044;DHT22;38053;53.100;6.078;2024-01-30T02:00:22;5.90;99.90
52044;DHT22;38053;53.100;6.078;2024-01-30T02:02:49;5.90;99.90
52044;DHT22;38053;53.100;6.078;2024-01-30T02:05:16;5.90;99.90
52044;DHT22;38053;53.100;6.078;2024-01-30T02:07:42;5.90;99.90
52044;DHT22;38053;53.100;6.078;2024-01-30T02:10:17;5.90;99.90
52044;DHT22;38053;53.100;6.078;2024-01-30T02:12:43;5.90;99.90
52044;DHT22;38053;53.100;6.078;2024-01-30T02:15:13;5.90;99.90
52044;DHT22;38053;53.100;6.078;2024-01-30T02:17:41;5.90;99.90
52044;DHT22;38053;53.100;6.078;2024-01-30T02:20:11;5.90;99.90
52044;DHT22;38053;53.100;6.078;2024-01-30T02:22:37;6.00;99.90
52044;DHT22;38053;53.100;6.078;2024-01-30T02:25:04;6.00;99.90
52044;DHT22;38053;53.100;6.078;2024-01-30T02:27:30;6.00;99.90
52044;DHT22;38053;53.100;6.078;2024-01-30T02:29:55;6.00;99.90
52044;DHT22;38053;53.100;6.078;2024-01-30T02:32:24;6.00;99.90
52044;DHT22;38053;53.100;6.078;2024-01-30T02:34:49;6.00;99.90
52044;DHT22;38053;53.100;6.078;2024-01-30T02:37:16;6.00;99.90
52044;DHT22;38053;53.100;6.078;2024-01-30T02:39:42;6.00;99.90
52044;DHT22;38053;53.100;6.078;2024-01-30T02:42:16;6.00;99.90
52044;DHT22;38053;53.100;6.078;2024-01-30T02:44:42;6.00;99.90
52044;DHT22;38053;53.100;6.078;2024-01-30T02:47:07;6.00;99.90
52044;DHT22;38053;53.100;6.078;2024-01-30T02:49:33;6.00;99.90
52044;DHT22;38053;53.100;6.078;2024-01-30T02:51:59;6.00;99.90
52044;DHT22;38053;53.100;6.078;2024-01-30T02:54:24;6.00;99.90
52044;DHT22;38053;53.100;6.078;2024-01-30T02:56:53;6.00;99.90
52044;DHT22;38053;53.100;6.078;2024-01-30T02:59:18;6.00;99.90
52044;DHT22;38053;53.100;6.078;2024-01-30T03:01:45;6.00;99.90
52044;DHT22;38053;53.100;6.078;2024-01-30T03:04:12;6.00;99.90
52044;DHT22;38053;53.100;6.078;2024-01-30T03:06:38;6.00;99.90
52044;DHT22;38053;53.100;6.078;2024-01-30T03:09:06;6.00;99.90
52044;DHT22;38053;53.100;6.078;2024-01-30T03:11:31;6.00;99.90
52044;DHT22;38053;53.100;6.078;2024-01-30T03:13:57;6.00;99.90
52044;DHT22;38053;53.100;6.078;2024-01-30T03:16:23;6.00;99.90
52044;DHT22;38053;53.100;6.078;2024-01-30T03:18:48;6.00;99.90
52044;DHT22;38053;53.100;6.078;2024-01-30T03:21:17;6.00;99.90
52044;DHT22;38053;53.100;6.078;2024-01-30T03:23:43;6.10;99.90
52044;DHT22;38053;53.100;6.078;2024-01-30T03:26:08;6.10;99.90
52044;DHT22;38053;53.100;6.078;2024-01-30T03:28:34;6.10;99.90
52044;DHT22;38053;53.100;6.078;2024-01-30T03:31:00;6.10;99.90
52044;DHT22;38053;53.100;6.078;2024-01-30T03:33:26;6.10;99.90
52044;DHT22;38053;53.100;6.078;2024-01-30T03:35:52;6.10;99.90
52044;DHT22;38053;53.100;6.078;2024-01-30T03:38:21;6.10;99.90
52044;DHT22;38053;53.100;6.078;2024-01-30T03:40:47;6.10;99.90
52044;DHT22;38053;53.100;6.078;2024-01-30T03:43:12;6.20;99.90
52044;DHT22;38053;53.100;6.078;2024-01-30T03:45:38;6.20;99.90
52044;DHT22;38053;53.100;6.078;2024-01-30T03:48:06;6.20;99.90
52044;DHT22;38053;53.100;6.078;2024-01-30T03:50:32;6.20;99.90
52044;DHT22;38053;53.100;6.078;2024-01-30T03:52:58;6.20;99.90
52044;DHT22;38053;53.100;6.078;2024-01-30T03:55:25;6.20;99.90
52044;DHT22;38053;53.100;6.078;2024-01-30T03:57:50;6.30;99.90
52044;DHT22;38053;53.100;6.078;2024-01-30T04:00:17;6.30;99.90
52044;DHT22;38053;53.100;6.078;2024-01-30T04:02:48;6.30;99.90
52044;DHT22;38053;53.100;6.078;2024-01-30T04:05:17;6.30;99.90
52044;DHT22;38053;53.100;6.078;2024-01-30T04:07:42;6.20;99.90
52044;DHT22;38053;53.100;6.078;2024-01-30T04:10:09;6.20;99.90
52044;DHT22;38053;53.100;6.078;2024-01-30T04:12:35;6.20;99.90
52044;DHT22;38053;53.100;6.078;2024-01-30T04:15:02;6.20;99.90
52044;DHT22;38053;53.100;6.078;2024-01-30T04:17:28;6.30;99.90
52044;DHT22;38053;53.100;6.078;2024-01-30T04:19:54;6.30;99.90
52044;DHT22;38053;53.100;6.078;2024-01-30T04:22:20;6.30;99.90
52044;DHT22;38053;53.100;6.078;2024-01-30T04:24:46;6.30;99.90
52044;DHT22;38053;53.100;6.078;2024-01-30T04:27:12;6.30;99.90
52044;DHT22;38053;53.100;6.078;2024-01-30T04:29:38;6.30;99.90
52044;DHT22;38053;53.100;6.078;2024-01-30T04:32:06;6.30;99.90
52044;DHT22;38053;53.100;6.078;2024-01-30T04:34:32;6.40;99.90
52044;DHT22;38053;53.100;6.078;2024-01-30T04:36:58;6.40;99.90
52044;DHT22;38053;53.100;6.078;2024-01-30T04:39:24;6.40;99.90
52044;DHT22;38053;53.100;6.078;2024-01-30T04:41:52;6.50;99.90
52044;DHT22;38053;53.100;6.078;2024-01-30T04:44:18;6.50;99.90
52044;DHT22;38053;53.100;6.078;2024-01-30T04:46:43;6.50;99.90
52044;DHT22;38053;53.100;6.078;2024-01-30T04:49:09;6.50;99.90
52044;DHT22;38053;53.100;6.078;2024-01-30T04:51:38;6.50;99.90
52044;DHT22;38053;53.100;6.078;2024-01-30T04:54:03;6.50;99.90
52044;DHT22;38053;53.100;6.078;2024-01-30T04:56:29;6.50;99.90
52044;DHT22;38053;53.100;6.078;2024-01-30T04:58:59;6.50;99.90
52044;DHT22;38053;53.100;6.078;2024-01-30T05:01:25;6.50;99.90
52044;DHT22;38053;53.100;6.078;2024-01-30T05:03:50;6.50;99.90
52044;DHT22;38053;53.100;6.078;2024-01-30T05:06:28;6.50;99.90
52044;DHT22;38053;53.100;6.078;2024-01-30T05:08:54;6.50;99.90
52044;DHT22;38053;53.100;6.078;2024-01-30T05:11:19;6.60;99.90
52044;DHT22;38053;53.100;6.078;2024-01-30T05:13:45;6.60;99.90
52044;DHT22;38053;53.100;6.078;2024-01-30T05:16:11;6.60;99.90
52044;DHT22;38053;53.100;6.078;2024-01-30T05:18:36;6.60;99.90
52044;DHT22;38053;53.100;6.078;2024-01-30T05:21:03;6.70;99.90
52044;DHT22;38053;53.100;6.078;2024-01-30T05:23:29;6.70;99.90
52044;DHT22;38053;53.100;6.078;2024-01-30T05:25:54;6.70;99.90
52044;DHT22;38053;53.100;6.078;2024-01-30T05:28:20;6.70;99.90
52044;DHT22;38053;53.100;6.078;2024-01-30T05:30:46;6.70;99.90
52044;DHT22;38053;53.100;6.078;2024-01-30T05:33:11;6.70;99.90
52044;DHT22;38053;53.100;6.078;2024-01-30T05:35:40;6.70;99.90
52044;DHT22;38053;53.100;6.078;2024-01-30T05:38:12;6.80;99.90
52044;DHT22;38053;53.100;6.078;2024-01-30T05:40:42;6.80;99.90
52044;DHT22;38053;53.100;6.078;2024-01-30T05:43:08;6.90;99.90
52044;DHT22;38053;53.100;6.078;2024-01-30T05:45:37;6.90;99.90
52044;DHT22;38053;53.100;6.078;2024-01-30T05:51:44;7.00;99.90
52044;DHT22;38053;53.100;6.078;2024-01-30T05:54:09;7.00;99.90
52044;DHT22;38053;53.100;6.078;2024-01-30T05:56:35;7.00;99.90
52044;DHT22;38053;53.100;6.078;2024-01-30T05:59:04;7.00;99.90
52044;DHT22;38053;53.100;6.078;2024-01-30T06:01:30;7.00;99.90
52044;DHT22;38053;53.100;6.078;2024-01-30T06:03:57;7.00;99.90
52044;DHT22;38053;53.100;6.078;2024-01-30T06:06:23;7.00;99.90
52044;DHT22;38053;53.100;6.078;2024-01-30T06:08:48;7.00;99.90
52044;DHT22;38053;53.100;6.078;2024-01-30T06:11:15;7.10;99.90
52044;DHT22;38053;53.100;6.078;2024-01-30T06:13:41;7.10;99.90
52044;DHT22;38053;53.100;6.078;2024-01-30T06:16:09;7.10;99.90
52044;DHT22;38053;53.100;6.078;2024-01-30T06:18:36;7.10;99.90
52044;DHT22;38053;53.100;6.078;2024-01-30T06:21:02;7.20;99.90
52044;DHT22;38053;53.100;6.078;2024-01-30T06:23:27;7.20;99.90
52044;DHT22;38053;53.100;6.078;2024-01-30T06:25:53;7.20;99.90
52044;DHT22;38053;53.100;6.078;2024-01-30T06:28:20;7.20;99.90
52044;DHT22;38053;53.100;6.078;2024-01-30T06:30:46;7.30;99.90
52044;DHT22;38053;53.100;6.078;2024-01-30T06:33:12;7.30;99.90
52044;DHT22;38053;53.100;6.078;2024-01-30T06:35:38;7.30;99.90
52044;DHT22;38053;53.100;6.078;2024-01-30T06:38:06;7.30;99.90
52044;DHT22;38053;53.100;6.078;2024-01-30T06:40:31;7.40;99.90
52044;DHT22;38053;53.100;6.078;2024-01-30T06:42:57;7.40;99.90
52044;DHT22;38053;53.100;6.078;2024-01-30T06:45:22;7.40;99.90
52044;DHT22;38053;53.100;6.078;2024-01-30T06:47:53;7.30;99.90
52044;DHT22;38053;53.100;6.078;2024-01-30T06:50:25;7.30;99.90
52044;DHT22;38053;53.100;6.078;2024-01-30T06:52:51;7.30;99.90
52044;DHT22;38053;53.100;6.078;2024-01-30T06:55:18;7.30;99.90
52044;DHT22;38053;53.100;6.078;2024-01-30T06:57:43;7.30;99.90
52044;DHT22;38053;53.100;6.078;2024-01-30T07:00:10;7.30;99.90
52044;DHT22;38053;53.100;6.078;2024-01-30T07:02:39;7.30;99.90
52044;DHT22;38053;53.100;6.078;2024-01-30T07:05:04;7.30;99.90
52044;DHT22;38053;53.100;6.078;2024-01-30T07:07:30;7.30;99.90
52044;DHT22;38053;53.100;6.078;2024-01-30T07:09:58;7.40;99.90
52044;DHT22;38053;53.100;6.078;2024-01-30T07:12:26;7.40;99.90
52044;DHT22;38053;53.100;6.078;2024-01-30T07:14:52;7.40;99.90
52044;DHT22;38053;53.100;6.078;2024-01-30T07:17:18;7.40;99.90
52044;DHT22;38053;53.100;6.078;2024-01-30T07:19:45;7.40;99.90
52044;DHT22;38053;53.100;6.078;2024-01-30T07:22:11;7.50;99.90
52044;DHT22;38053;53.100;6.078;2024-01-30T07:24:41;7.50;99.90
52044;DHT22;38053;53.100;6.078;2024-01-30T07:27:17;7.50;99.90
52044;DHT22;38053;53.100;6.078;2024-01-30T07:29:46;7.50;99.90
52044;DHT22;38053;53.100;6.078;2024-01-30T07:32:12;7.50;99.90
52044;DHT22;38053;53.100;6.078;2024-01-30T07:34:40;7.60;99.90
52044;DHT22;38053;53.100;6.078;2024-01-30T07:37:05;7.60;99.90
52044;DHT22;38053;53.100;6.078;2024-01-30T07:39:34;7.60;99.90
52044;DHT22;38053;53.100;6.078;2024-01-30T07:42:00;7.60;99.90
52044;DHT22;38053;53.100;6.078;2024-01-30T07:44:25;7.60;99.90
52044;DHT22;38053;53.100;6.078;2024-01-30T07:46:51;7.60;99.90
52044;DHT22;38053;53.100;6.078;2024-01-30T07:49:20;7.60;99.90
52044;DHT22;38053;53.100;6.078;2024-01-30T07:51:45;7.60;99.90
52044;DHT22;38053;53.100;6.078;2024-01-30T07:54:30;7.60;99.90
52044;DHT22;38053;53.100;6.078;2024-01-30T07:57:01;7.60;99.90
52044;DHT22;38053;53.100;6.078;2024-01-30T07:59:28;7.70;99.90
52044;DHT22;38053;53.100;6.078;2024-01-30T08:02:03;7.60;99.90
52044;DHT22;38053;53.100;6.078;2024-01-30T08:04:35;7.60;99.90
52044;DHT22;38053;53.100;6.078;2024-01-30T08:07:03;7.60;99.90
52044;DHT22;38053;53.100;6.078;2024-01-30T08:12:39;7.70;99.90
52044;DHT22;38053;53.100;6.078;2024-01-30T08:15:05;7.60;99.90
52044;DHT22;38053;53.100;6.078;2024-01-30T08:17:31;7.70;99.90
52044;DHT22;38053;53.100;6.078;2024-01-30T08:19:57;7.60;99.90
52044;DHT22;38053;53.100;6.078;2024-01-30T08:22:22;7.60;99.90
52044;DHT22;38053;53.100;6.078;2024-01-30T08:24:48;7.60;99.90
52044;DHT22;38053;53.100;6.078;2024-01-30T08:27:13;7.70;99.90
52044;DHT22;38053;53.100;6.078;2024-01-30T08:30:07;7.70;99.90
52044;DHT22;38053;53.100;6.078;2024-01-30T08:32:34;7.70;99.90
52044;DHT22;38053;53.100;6.078;2024-01-30T08:35:03;7.80;99.90
52044;DHT22;38053;53.100;6.078;2024-01-30T08:37:29;7.80;99.90
52044;DHT22;38053;53.100;6.078;2024-01-30T08:39:55;7.80;99.90
52044;DHT22;38053;53.100;6.078;2024-01-30T08:42:22;7.80;99.90
52044;DHT22;38053;53.100;6.078;2024-01-30T08:44:49;7.80;99.90
52044;DHT22;38053;53.100;6.078;2024-01-30T08:47:15;7.90;99.90
52044;DHT22;38053;53.100;6.078;2024-01-30T08:49:43;7.90;99.90
52044;DHT22;38053;53.100;6.078;2024-01-30T08:52:12;7.90;99.90
52044;DHT22;38053;53.100;6.078;2024-01-30T08:54:37;7.90;99.90
52044;DHT22;38053;53.100;6.078;2024-01-30T08:57:08;7.90;99.90
52044;DHT22;38053;53.100;6.078;2024-01-30T08:59:33;8.00;99.90
52044;DHT22;38053;53.100;6.078;2024-01-30T09:01:59;8.00;99.90
52044;DHT22;38053;53.100;6.078;2024-01-30T09:08:14;8.10;99.90
52044;DHT22;38053;53.100;6.078;2024-01-30T09:10:42;8.20;99.90
52044;DHT22;38053;53.100;6.078;2024-01-30T09:13:11;8.20;99.90
52044;DHT22;38053;53.100;6.078;2024-01-30T09:15:36;8.20;99.90
52044;DHT22;38053;53.100;6.078;2024-01-30T09:18:02;8.30;99.90
52044;DHT22;38053;53.100;6.078;2024-01-30T09:24:18;8.30;99.90
52044;DHT22;38053;53.100;6.078;2024-01-30T09:26:53;8.30;99.90
52044;DHT22;38053;53.100;6.078;2024-01-30T09:33:13;8.30;99.90
52044;DHT22;38053;53.100;6.078;2024-01-30T09:35:44;8.40;99.90
52044;DHT22;38053;53.100;6.078;2024-01-30T09:38:16;8.40;99.90
52044;DHT22;38053;53.100;6.078;2024-01-30T09:40:54;8.50;99.90
52044;DHT22;38053;53.100;6.078;2024-01-30T09:43:25;8.50;99.90
52044;DHT22;38053;53.100;6.078;2024-01-30T09:45:55;8.60;99.90
52044;DHT22;38053;53.100;6.078;2024-01-30T09:52:06;8.60;99.90
52044;DHT22;38053;53.100;6.078;2024-01-30T09:54:34;8.60;99.90
52044;DHT22;38053;53.100;6.078;2024-01-30T09:57:00;8.60;99.90
52044;DHT22;38053;53.100;6.078;2024-01-30T09:59:26;8.60;99.90
52044;DHT22;38053;53.100;6.078;2024-01-30T10:01:51;8.60;99.90
52044;DHT22;38053;53.100;6.078;2024-01-30T10:04:23;8.70;99.90
52044;DHT22;38053;53.100;6.078;2024-01-30T10:06:51;8.70;99.90
52044;DHT22;38053;53.100;6.078;2024-01-30T10:09:17;8.70;99.90
52044;DHT22;38053;53.100;6.078;2024-01-30T10:11:42;8.70;99.90
52044;DHT22;38053;53.100;6.078;2024-01-30T10:14:09;8.70;99.90
52044;DHT22;38053;53.100;6.078;2024-01-30T10:16:34;8.70;99.90
52044;DHT22;38053;53.100;6.078;2024-01-30T10:19:11;8.80;99.90
52044;DHT22;38053;53.100;6.078;2024-01-30T10:21:37;8.80;99.90
52044;DHT22;38053;53.100;6.078;2024-01-30T10:24:03;8.90;99.90
52044;DHT22;38053;53.100;6.078;2024-01-30T10:26:29;9.00;99.90
52044;DHT22;38053;53.100;6.078;2024-01-30T10:28:58;9.10;99.90
52044;DHT22;38053;53.100;6.078;2024-01-30T10:31:24;9.20;99.90
52044;DHT22;38053;53.100;6.078;2024-01-30T10:37:11;9.50;99.90
52044;DHT22;38053;53.100;6.078;2024-01-30T10:39:44;9.60;99.90
52044;DHT22;38053;53.100;6.078;2024-01-30T10:42:15;9.60;99.90
52044;DHT22;38053;53.100;6.078;2024-01-30T10:44:48;9.60;99.90
52044;DHT22;38053;53.100;6.078;2024-01-30T10:47:24;9.60;99.90
52044;DHT22;38053;53.100;6.078;2024-01-30T10:49:51;9.70;99.90
52044;DHT22;38053;53.100;6.078;2024-01-30T10:52:18;9.70;99.90
52044;DHT22;38053;53.100;6.078;2024-01-30T10:54:53;9.70;99.90
52044;DHT22;38053;53.100;6.078;2024-01-30T10:57:19;9.60;99.90
52044;DHT22;38053;53.100;6.078;2024-01-30T11:03:47;9.60;99.90
52044;DHT22;38053;53.100;6.078;2024-01-30T11:06:14;9.50;99.90
52044;DHT22;38053;53.100;6.078;2024-01-30T11:08:46;9.50;99.90
52044;DHT22;38053;53.100;6.078;2024-01-30T11:11:25;9.60;99.90
52044;DHT22;38053;53.100;6.078;2024-01-30T11:13:51;9.60;99.90
52044;DHT22;38053;53.100;6.078;2024-01-30T11:16:17;9.60;99.90
52044;DHT22;38053;53.100;6.078;2024-01-30T11:18:54;9.60;99.90
52044;DHT22;38053;53.100;6.078;2024-01-30T11:22:05;9.60;99.90
52044;DHT22;38053;53.100;6.078;2024-01-30T11:24:40;9.50;99.90
52044;DHT22;38053;53.100;6.078;2024-01-30T11:27:09;9.50;99.90
52044;DHT22;38053;53.100;6.078;2024-01-30T11:29:36;9.50;99.90
52044;DHT22;38053;53.100;6.078;2024-01-30T11:32:04;9.50;99.90
52044;DHT22;38053;53.100;6.078;2024-01-30T11:34:32;9.50;99.90
52044;DHT22;38053;53.100;6.078;2024-01-30T11:37:03;9.40;99.90
52044;DHT22;38053;53.100;6.078;2024-01-30T11:39:36;9.30;99.90
52044;DHT22;38053;53.100;6.078;2024-01-30T11:42:03;9.30;99.90
52044;DHT22;38053;53.100;6.078;2024-01-30T11:44:51;9.20;99.90
52044;DHT22;38053;53.100;6.078;2024-01-30T11:47:19;9.20;99.90
52044;DHT22;38053;53.100;6.078;2024-01-30T11:49:45;9.20;99.90
52044;DHT22;38053;53.100;6.078;2024-01-30T11:52:11;9.10;99.90
52044;DHT22;38053;53.100;6.078;2024-01-30T11:55:14;9.10;99.90
52044;DHT22;38053;53.100;6.078;2024-01-30T11:57:46;9.10;99.90
52044;DHT22;38053;53.100;6.078;2024-01-30T12:01:04;9.00;99.90
52044;DHT22;38053;53.100;6.078;2024-01-30T12:03:23;9.00;99.90
52044;DHT22;38053;53.100;6.078;2024-01-30T12:05:58;9.00;99.90
52044;DHT22;38053;53.100;6.078;2024-01-30T12:08:24;9.00;99.90
52044;DHT22;38053;53.100;6.078;2024-01-30T12:10:57;9.00;99.90
52044;DHT22;38053;53.100;6.078;2024-01-30T12:13:24;9.00;99.90
52044;DHT22;38053;53.100;6.078;2024-01-30T12:15:55;9.10;99.90
52044;DHT22;38053;53.100;6.078;2024-01-30T12:18:21;9.10;99.90
52044;DHT22;38053;53.100;6.078;2024-01-30T12:20:59;9.10;99.90
52044;DHT22;38053;53.100;6.078;2024-01-30T12:23:28;9.10;99.90
52044;DHT22;38053;53.100;6.078;2024-01-30T12:25:54;9.20;99.90
52044;DHT22;38053;53.100;6.078;2024-01-30T12:28:20;9.20;99.90
52044;DHT22;38053;53.100;6.078;2024-01-30T12:31:05;9.30;99.90
52044;DHT22;38053;53.100;6.078;2024-01-30T12:33:37;9.40;99.90
52044;DHT22;38053;53.100;6.078;2024-01-30T12:36:03;9.60;99.90
52044;DHT22;38053;53.100;6.078;2024-01-30T12:38:29;9.80;99.90
52044;DHT22;38053;53.100;6.078;2024-01-30T12:40:55;10.10;99.90
52044;DHT22;38053;53.100;6.078;2024-01-30T12:43:22;10.20;99.90
52044;DHT22;38053;53.100;6.078;2024-01-30T12:48:52;10.10;99.90
52044;DHT22;38053;53.100;6.078;2024-01-30T12:51:18;10.00;99.90
52044;DHT22;38053;53.100;6.078;2024-01-30T12:53:47;9.90;99.90
52044;DHT22;38053;53.100;6.078;2024-01-30T12:56:14;9.70;99.90
52044;DHT22;38053;53.100;6.078;2024-01-30T12:58:46;9.60;99.90
52044;DHT22;38053;53.100;6.078;2024-01-30T13:01:12;9.50;99.90
52044;DHT22;38053;53.100;6.078;2024-01-30T13:03:50;9.40;99.90
52044;DHT22;38053;53.100;6.078;2024-01-30T13:06:18;9.30;99.90
52044;DHT22;38053;53.100;6.078;2024-01-30T13:08:44;9.40;99.90
52044;DHT22;38053;53.100;6.078;2024-01-30T13:14:50;9.20;99.90
52044;DHT22;38053;53.100;6.078;2024-01-30T13:17:16;9.10;99.90
52044;DHT22;38053;53.100;6.078;2024-01-30T13:19:45;9.10;99.90
52044;DHT22;38053;53.100;6.078;2024-01-30T13:22:10;9.00;99.90
52044;DHT22;38053;53.100;6.078;2024-01-30T13:24:36;9.00;99.90
52044;DHT22;38053;53.100;6.078;2024-01-30T13:27:02;9.00;99.90
52044;DHT22;38053;53.100;6.078;2024-01-30T13:29:31;8.90;99.90
52044;DHT22;38053;53.100;6.078;2024-01-30T13:31:56;8.80;99.90
52044;DHT22;38053;53.100;6.078;2024-01-30T13:34:22;8.80;99.90
52044;DHT22;38053;53.100;6.078;2024-01-30T13:36:48;8.80;99.90
52044;DHT22;38053;53.100;6.078;2024-01-30T13:39:14;8.70;99.90
52044;DHT22;38053;53.100;6.078;2024-01-30T13:41:43;8.70;99.90
52044;DHT22;38053;53.100;6.078;2024-01-30T13:44:09;8.60;99.90
52044;DHT22;38053;53.100;6.078;2024-01-30T13:46:35;8.60;99.90
52044;DHT22;38053;53.100;6.078;2024-01-30T13:49:01;8.50;99.90
52044;DHT22;38053;53.100;6.078;2024-01-30T13:51:27;8.50;99.90
52044;DHT22;38053;53.100;6.078;2024-01-30T13:53:53;8.40;99.90
52044;DHT22;38053;53.100;6.078;2024-01-30T13:56:22;8.40;99.90
52044;DHT22;38053;53.100;6.078;2024-01-30T13:58:56;8.40;99.90
52044;DHT22;38053;53.100;6.078;2024-01-30T14:01:22;8.40;99.90
52044;DHT22;38053;53.100;6.078;2024-01-30T14:03:48;8.30;99.90
52044;DHT22;38053;53.100;6.078;2024-01-30T14:06:14;8.30;99.90
52044;DHT22;38053;53.100;6.078;2024-01-30T14:08:46;8.20;99.90
52044;DHT22;38053;53.100;6.078;2024-01-30T14:11:21;8.20;99.90
52044;DHT22;38053;53.100;6.078;2024-01-30T14:13:46;8.20;99.90
52044;DHT22;38053;53.100;6.078;2024-01-30T14:16:12;8.20;99.90
52044;DHT22;38053;53.100;6.078;2024-01-30T14:19:11;8.10;99.90
52044;DHT22;38053;53.100;6.078;2024-01-30T14:21:37;8.10;99.90
52044;DHT22;38053;53.100;6.078;2024-01-30T14:24:06;8.10;99.90
52044;DHT22;38053;53.100;6.078;2024-01-30T14:26:57;8.10;99.90
52044;DHT22;38053;53.100;6.078;2024-01-30T14:29:34;8.10;99.90
52044;DHT22;38053;53.100;6.078;2024-01-30T14:32:36;8.10;99.90
52044;DHT22;38053;53.100;6.078;2024-01-30T14:35:30;8.00;99.90
52044;DHT22;38053;53.100;6.078;2024-01-30T14:38:01;8.10;99.90
52044;DHT22;38053;53.100;6.078;2024-01-30T14:40:35;8.00;99.90
52044;DHT22;38053;53.100;6.078;2024-01-30T14:43:19;8.00;99.90
52044;DHT22;38053;53.100;6.078;2024-01-30T14:45:45;8.00;99.90
52044;DHT22;38053;53.100;6.078;2024-01-30T14:48:19;8.00;99.90
52044;DHT22;38053;53.100;6.078;2024-01-30T14:50:45;8.00;99.90
52044;DHT22;38053;53.100;6.078;2024-01-30T14:53:12;8.00;99.90
52044;DHT22;38053;53.100;6.078;2024-01-30T14:55:37;8.00;99.90
52044;DHT22;38053;53.100;6.078;2024-01-30T14:58:03;8.00;99.90
52044;DHT22;38053;53.100;6.078;2024-01-30T15:00:30;8.00;99.90
52044;DHT22;38053;53.100;6.078;2024-01-30T15:02:56;8.00;99.90
52044;DHT22;38053;53.100;6.078;2024-01-30T15:05:24;7.90;99.90
52044;DHT22;38053;53.100;6.078;2024-01-30T15:08:01;7.90;99.90
52044;DHT22;38053;53.100;6.078;2024-01-30T15:10:27;8.00;99.90
52044;DHT22;38053;53.100;6.078;2024-01-30T15:12:58;7.90;99.90
52044;DHT22;38053;53.100;6.078;2024-01-30T15:15:24;7.90;99.90
52044;DHT22;38053;53.100;6.078;2024-01-30T15:17:50;7.90;99.90
52044;DHT22;38053;53.100;6.078;2024-01-30T15:20:15;7.80;99.90
52044;DHT22;38053;53.100;6.078;2024-01-30T15:22:43;7.80;99.90
52044;DHT22;38053;53.100;6.078;2024-01-30T15:25:19;7.80;99.90
52044;DHT22;38053;53.100;6.078;2024-01-30T15:27:49;7.80;99.90
52044;DHT22;38053;53.100;6.078;2024-01-30T15:30:23;7.80;99.90
52044;DHT22;38053;53.100;6.078;2024-01-30T15:32:49;7.70;99.90
52044;DHT22;38053;53.100;6.078;2024-01-30T15:35:15;7.70;99.90
52044;DHT22;38053;53.100;6.078;2024-01-30T15:37:53;7.60;99.90
52044;DHT22;38053;53.100;6.078;2024-01-30T15:40:20;7.60;99.90
52044;DHT22;38053;53.100;6.078;2024-01-30T15:42:46;7.70;99.90
52044;DHT22;38053;53.100;6.078;2024-01-30T15:45:21;7.70;99.90
52044;DHT22;38053;53.100;6.078;2024-01-30T15:47:46;7.70;99.90
52044;DHT22;38053;53.100;6.078;2024-01-30T15:50:12;7.70;99.90
52044;DHT22;38053;53.100;6.078;2024-01-30T15:52:37;7.70;99.90
52044;DHT22;38053;53.100;6.078;2024-01-30T15:55:03;7.70;99.90
52044;DHT22;38053;53.100;6.078;2024-01-30T15:57:29;7.70;99.90
52044;DHT22;38053;53.100;6.078;2024-01-30T15:59:54;7.70;99.90
52044;DHT22;38053;53.100;6.078;2024-01-30T16:02:20;7.70;99.90
52044;DHT22;38053;53.100;6.078;2024-01-30T16:05:05;7.60;99.90
52044;DHT22;38053;53.100;6.078;2024-01-30T16:08:19;7.60;99.90
52044;DHT22;38053;53.100;6.078;2024-01-30T16:10:45;7.60;99.90
52044;DHT22;38053;53.100;6.078;2024-01-30T16:13:14;7.50;99.90
52044;DHT22;38053;53.100;6.078;2024-01-30T16:15:40;7.50;99.90
52044;DHT22;38053;53.100;6.078;2024-01-30T16:18:11;7.40;99.90
52044;DHT22;38053;53.100;6.078;2024-01-30T16:20:43;7.40;99.90
52044;DHT22;38053;53.100;6.078;2024-01-30T16:26:38;7.30;99.90
52044;DHT22;38053;53.100;6.078;2024-01-30T16:29:05;7.30;99.90
52044;DHT22;38053;53.100;6.078;2024-01-30T16:31:31;7.30;99.90